createdAt,value
2018-01-21T00:01:37.574Z,1.80
2018-01-21T00:04:11.259Z,1.70
2018-01-21T00:06:44.874Z,1.70
2018-01-21T00:09:18.829Z,1.70
2018-01-21T00:11:52.604Z,1.70
2018-01-21T00:14:27.170Z,1.70
2018-01-21T00:17:00.766Z,1.70
2018-01-21T00:19:34.497Z,1.80
2018-01-21T00:22:09.588Z,1.70
2018-01-21T00:24:43.363Z,1.60
2018-01-21T00:27:17.140Z,1.60
2018-01-21T00:29:50.728Z,1.50
2018-01-21T00:32:25.785Z,1.40
2018-01-21T00:35:03.711Z,1.30
2018-01-21T00:37:39.825Z,1.30
2018-01-21T00:40:16.287Z,1.30
2018-01-21T00:42:50.882Z,1.20
2018-01-21T00:45:25.566Z,1.20
2018-01-21T00:48:02.511Z,1.20
2018-01-21T00:50:36.838Z,1.20
2018-01-21T00:53:12.296Z,1.30
2018-01-21T00:55:46.111Z,1.30
2018-01-21T00:58:19.876Z,1.30
2018-01-21T01:00:54.348Z,1.30
2018-01-21T01:03:28.173Z,1.30
2018-01-21T01:06:01.992Z,1.30
2018-01-21T01:08:36.495Z,1.30
2018-01-21T01:11:11.412Z,1.30
2018-01-21T01:13:47.078Z,1.30
2018-01-21T01:16:21.755Z,1.30
2018-01-21T01:18:56.419Z,1.40
2018-01-21T01:21:30.236Z,1.40
2018-01-21T01:24:06.753Z,1.40
2018-01-21T01:26:40.792Z,1.50
2018-01-21T01:29:14.505Z,1.50
2018-01-21T01:31:49.240Z,1.50
2018-01-21T01:34:23.623Z,1.40
2018-01-21T01:36:58.219Z,1.40
2018-01-21T01:39:31.951Z,1.30
2018-01-21T01:42:05.524Z,1.40
2018-01-21T01:44:40.464Z,1.50
2018-01-21T01:47:15.054Z,1.50
2018-01-21T01:49:48.904Z,1.50
2018-01-21T01:52:23.008Z,1.50
2018-01-21T01:54:57.394Z,1.50
2018-01-21T01:57:31.308Z,1.50
2018-01-21T02:00:05.866Z,1.50
2018-01-21T02:02:39.705Z,1.50
2018-01-21T02:05:13.302Z,1.60
2018-01-21T02:07:47.127Z,1.60
2018-01-21T02:10:21.368Z,1.60
2018-01-21T02:12:54.996Z,1.60
2018-01-21T02:15:28.627Z,1.60
2018-01-21T02:18:03.047Z,1.50
2018-01-21T02:20:37.021Z,1.60
2018-01-21T02:23:11.432Z,1.50
2018-01-21T02:25:45.265Z,1.50
2018-01-21T02:28:19.049Z,1.50
2018-01-21T02:30:52.728Z,1.60
2018-01-21T02:33:27.155Z,1.60
2018-01-21T02:36:00.854Z,1.60
2018-01-21T02:38:34.674Z,1.60
2018-01-21T02:41:08.466Z,1.60
2018-01-21T02:43:43.160Z,1.60
2018-01-21T02:46:17.510Z,1.60
2018-01-21T02:48:51.282Z,1.60
2018-01-21T02:51:25.123Z,1.60
2018-01-21T02:53:58.969Z,1.60
2018-01-21T02:56:33.535Z,1.60
2018-01-21T02:59:07.266Z,1.60
2018-01-21T03:01:41.002Z,1.60
2018-01-21T03:04:14.925Z,1.50
2018-01-21T03:06:48.547Z,1.60
2018-01-21T03:09:23.936Z,1.50
2018-01-21T03:11:57.693Z,1.50
2018-01-21T03:14:31.490Z,1.40
2018-01-21T03:17:05.189Z,1.40
2018-01-21T03:19:39.293Z,1.40
2018-01-21T03:22:12.931Z,1.30
2018-01-21T03:24:47.486Z,1.40
2018-01-21T03:27:22.128Z,1.30
2018-01-21T03:29:56.644Z,1.40
2018-01-21T03:32:31.120Z,1.40
2018-01-21T03:35:06.338Z,1.50
2018-01-21T03:37:40.515Z,1.50
2018-01-21T03:40:14.540Z,1.40
2018-01-21T03:42:48.139Z,1.40
2018-01-21T03:45:21.900Z,1.40
2018-01-21T03:47:56.734Z,1.40
2018-01-21T03:50:30.376Z,1.40
2018-01-21T03:53:05.201Z,1.40
2018-01-21T03:55:38.892Z,1.40
2018-01-21T03:58:13.926Z,1.40
2018-01-21T04:00:47.649Z,1.40
2018-01-21T04:03:21.490Z,1.40
2018-01-21T04:05:56.744Z,1.40
2018-01-21T04:08:31.060Z,1.30
2018-01-21T04:11:04.677Z,1.40
2018-01-21T04:13:38.400Z,1.40
2018-01-21T04:16:12.034Z,1.40
2018-01-21T04:18:45.772Z,1.40
2018-01-21T04:21:19.474Z,1.30
2018-01-21T04:23:53.999Z,1.30
2018-01-21T04:26:28.472Z,1.30
2018-01-21T04:29:02.296Z,1.30
2018-01-21T04:31:36.954Z,1.30
2018-01-21T04:34:10.720Z,1.30
2018-01-21T04:36:44.351Z,1.20
2018-01-21T04:39:18.444Z,1.30
2018-01-21T04:41:52.479Z,1.30
2018-01-21T04:44:26.434Z,1.20
2018-01-21T04:47:00.888Z,1.30
2018-01-21T04:49:36.742Z,1.30
2018-01-21T04:52:12.701Z,1.20
2018-01-21T04:54:46.545Z,1.20
2018-01-21T04:57:21.307Z,1.30
2018-01-21T04:59:55.287Z,1.30
2018-01-21T05:02:30.263Z,1.30
2018-01-21T05:05:04.413Z,1.20
2018-01-21T05:07:38.958Z,1.20
2018-01-21T05:10:13.349Z,1.20
2018-01-21T05:12:46.976Z,1.20
2018-01-21T05:15:21.610Z,1.20
2018-01-21T05:17:56.144Z,1.20
2018-01-21T05:20:29.801Z,1.20
2018-01-21T05:23:03.704Z,1.30
2018-01-21T05:25:37.447Z,1.30
2018-01-21T05:28:12.112Z,1.40
2018-01-21T05:30:45.889Z,1.40
2018-01-21T05:33:19.740Z,1.30
2018-01-21T05:35:54.276Z,1.30
2018-01-21T05:38:28.800Z,1.30
2018-01-21T05:41:02.484Z,1.30
2018-01-21T05:43:36.137Z,1.30
2018-01-21T05:46:09.941Z,1.30
2018-01-21T05:48:43.629Z,1.30
2018-01-21T05:51:18.050Z,1.30
2018-01-21T05:53:52.191Z,1.20
2018-01-21T05:56:25.879Z,1.30
2018-01-21T05:58:59.665Z,1.30
2018-01-21T06:01:33.271Z,1.30
2018-01-21T06:04:06.864Z,1.30
2018-01-21T06:06:41.425Z,1.30
2018-01-21T06:09:16.351Z,1.30
2018-01-21T06:11:50.101Z,1.30
2018-01-21T06:14:24.664Z,1.30
2018-01-21T06:16:58.465Z,1.30
2018-01-21T06:19:34.626Z,1.30
2018-01-21T06:22:09.121Z,1.30
2018-01-21T06:24:44.327Z,1.40
2018-01-21T06:27:19.032Z,1.40
2018-01-21T06:29:52.679Z,1.40
2018-01-21T06:32:26.248Z,1.40
2018-01-21T06:35:01.286Z,1.30
2018-01-21T06:37:35.014Z,1.40
2018-01-21T06:40:09.512Z,1.40
2018-01-21T06:42:43.154Z,1.30
2018-01-21T06:45:17.504Z,1.40
2018-01-21T06:47:52.100Z,1.40
2018-01-21T06:50:26.895Z,1.40
2018-01-21T06:53:00.747Z,1.40
2018-01-21T06:55:35.214Z,1.40
2018-01-21T06:58:10.472Z,1.40
2018-01-21T07:00:44.160Z,1.40
2018-01-21T07:03:17.906Z,1.40
2018-01-21T07:05:51.870Z,1.40
2018-01-21T07:08:25.692Z,1.50
2018-01-21T07:11:00.282Z,1.50
2018-01-21T07:13:34.865Z,1.60
2018-01-21T07:16:11.406Z,1.60
2018-01-21T07:18:46.223Z,1.50
2018-01-21T07:21:21.778Z,1.50
2018-01-21T07:23:57.587Z,1.40
2018-01-21T07:26:31.291Z,1.40
2018-01-21T07:29:05.005Z,1.40
2018-01-21T07:31:38.822Z,1.40
2018-01-21T07:34:14.431Z,1.40
2018-01-21T07:36:48.046Z,1.40
2018-01-21T07:39:23.544Z,1.50
2018-01-21T07:41:57.953Z,1.50
2018-01-21T07:44:32.625Z,1.50
2018-01-21T07:47:07.410Z,1.50
2018-01-21T07:49:42.049Z,1.60
2018-01-21T07:52:15.592Z,1.60
2018-01-21T07:54:50.394Z,1.50
2018-01-21T07:57:24.117Z,1.50
2018-01-21T07:59:57.891Z,1.50
2018-01-21T08:02:31.596Z,1.50
2018-01-21T08:05:06.218Z,1.60
2018-01-21T08:07:39.810Z,1.60
2018-01-21T08:10:13.570Z,1.60
2018-01-21T08:12:47.255Z,1.70
2018-01-21T08:15:21.011Z,1.70
2018-01-21T08:17:56.606Z,1.70
2018-01-21T08:20:30.304Z,1.70
2018-01-21T08:23:03.970Z,1.70
2018-01-21T08:25:38.247Z,1.80
2018-01-21T08:28:12.868Z,1.80
2018-01-21T08:30:47.670Z,1.90
2018-01-21T08:33:22.213Z,1.90
2018-01-21T08:36:01.651Z,1.80
2018-01-21T08:38:42.483Z,1.90
2018-01-21T08:41:21.988Z,1.90
2018-01-21T08:43:57.137Z,1.90
2018-01-21T08:46:30.732Z,1.80
2018-01-21T08:49:04.784Z,1.90
2018-01-21T08:51:40.035Z,2.00
2018-01-21T08:54:14.830Z,2.00
2018-01-21T08:56:48.550Z,1.90
2018-01-21T08:59:22.296Z,1.90
2018-01-21T09:01:56.857Z,2.10
2018-01-21T09:04:31.273Z,2.00
2018-01-21T09:07:07.608Z,2.10
2018-01-21T09:09:41.409Z,2.10
2018-01-21T09:12:16.091Z,2.10
2018-01-21T09:14:50.820Z,2.10
2018-01-21T09:17:25.400Z,2.10
2018-01-21T09:19:59.200Z,2.10
2018-01-21T09:22:33.664Z,2.20
2018-01-21T09:25:07.255Z,2.20
2018-01-21T09:27:40.963Z,2.20
2018-01-21T09:30:14.785Z,2.20
2018-01-21T09:32:48.600Z,2.20
2018-01-21T09:35:22.367Z,2.10
2018-01-21T09:37:56.084Z,2.20
2018-01-21T09:40:29.760Z,2.20
2018-01-21T09:43:03.491Z,2.30
2018-01-21T09:45:37.284Z,2.40
2018-01-21T09:48:11.042Z,2.60
2018-01-21T09:50:44.822Z,2.70
2018-01-21T09:53:18.643Z,2.80
2018-01-21T09:55:53.237Z,2.60
2018-01-21T09:58:26.841Z,2.60
2018-01-21T10:01:00.682Z,2.60
2018-01-21T10:03:34.323Z,2.50
2018-01-21T10:06:08.181Z,2.50
2018-01-21T10:08:41.933Z,2.50
2018-01-21T10:11:15.807Z,2.60
2018-01-21T10:13:50.362Z,2.60
2018-01-21T10:16:24.132Z,2.50
2018-01-21T10:18:58.693Z,2.60
2018-01-21T10:21:32.295Z,2.60
2018-01-21T10:24:07.951Z,2.60
2018-01-21T10:26:42.327Z,2.60
2018-01-21T10:29:16.909Z,2.60
2018-01-21T10:31:50.655Z,2.60
2018-01-21T10:34:24.539Z,2.60
2018-01-21T10:36:58.329Z,2.60
2018-01-21T10:39:32.218Z,2.50
2018-01-21T10:42:06.432Z,2.60
2018-01-21T10:44:40.444Z,2.60
2018-01-21T10:47:14.298Z,2.60
2018-01-21T10:49:49.035Z,2.50
2018-01-21T10:52:23.528Z,2.50
2018-01-21T10:54:58.258Z,2.50
2018-01-21T10:57:32.172Z,2.60
2018-01-21T11:00:06.683Z,2.60
2018-01-21T11:02:40.422Z,2.60
2018-01-21T11:05:14.073Z,2.60
2018-01-21T11:07:47.880Z,2.70
2018-01-21T11:10:21.648Z,2.70
2018-01-21T11:12:55.180Z,2.70
2018-01-21T11:15:28.819Z,2.70
2018-01-21T11:18:02.673Z,2.80
2018-01-21T11:20:36.352Z,2.90
2018-01-21T11:23:10.087Z,2.90
2018-01-21T11:25:44.522Z,2.90
2018-01-21T11:28:19.028Z,2.80
2018-01-21T11:30:52.874Z,2.80
2018-01-21T11:33:26.656Z,2.80
2018-01-21T11:36:00.344Z,2.80
2018-01-21T11:38:33.970Z,2.80
2018-01-21T11:41:08.594Z,3.00
2018-01-21T11:43:42.168Z,3.00
2018-01-21T11:46:16.015Z,3.10
2018-01-21T11:48:49.824Z,3.20
2018-01-21T11:51:24.412Z,3.20
2018-01-21T11:53:58.242Z,3.20
2018-01-21T11:56:32.940Z,3.20
2018-01-21T11:59:07.025Z,3.20
2018-01-21T12:01:41.330Z,3.30
2018-01-21T12:04:15.446Z,3.30
2018-01-21T12:06:49.179Z,3.40
2018-01-21T12:09:22.917Z,3.50
2018-01-21T12:11:57.458Z,3.70
2018-01-21T12:14:31.118Z,3.60
2018-01-21T12:17:04.940Z,3.70
2018-01-21T12:19:38.686Z,3.60
2018-01-21T12:22:12.568Z,3.50
2018-01-21T12:24:46.747Z,3.50
2018-01-21T12:27:20.323Z,3.50
2018-01-21T12:29:54.140Z,3.50
2018-01-21T12:32:27.933Z,3.50
2018-01-21T12:35:01.712Z,3.40
2018-01-21T12:37:35.476Z,3.20
2018-01-21T12:40:09.317Z,3.10
2018-01-21T12:42:43.080Z,3.00
2018-01-21T12:45:17.755Z,3.00
2018-01-21T12:47:51.566Z,3.00
2018-01-21T12:50:25.204Z,3.10
2018-01-21T12:52:59.033Z,3.20
2018-01-21T12:55:33.445Z,3.40
2018-01-21T12:58:07.906Z,3.50
2018-01-21T13:00:42.360Z,3.50
2018-01-21T13:03:16.809Z,3.60
2018-01-21T13:05:53.940Z,3.60
2018-01-21T13:08:33.481Z,3.70
2018-01-21T13:11:07.206Z,3.60
2018-01-21T13:13:41.151Z,3.50
2018-01-21T13:16:14.907Z,3.40
2018-01-21T13:18:48.703Z,3.30
2018-01-21T13:21:24.774Z,3.40
2018-01-21T13:23:59.213Z,3.40
2018-01-21T13:26:33.807Z,3.50
2018-01-21T13:29:07.503Z,3.70
2018-01-21T13:31:42.007Z,3.80
2018-01-21T13:34:15.827Z,3.80
2018-01-21T13:36:50.445Z,3.80
2018-01-21T13:39:24.065Z,3.80
2018-01-21T13:41:58.815Z,3.80
2018-01-21T13:44:33.551Z,3.80
2018-01-21T13:47:07.915Z,3.90
2018-01-21T13:49:42.517Z,3.80
2018-01-21T13:52:16.371Z,3.80
2018-01-21T13:54:51.543Z,3.80
2018-01-21T13:57:26.202Z,3.80
2018-01-21T14:00:00.065Z,3.80
2018-01-21T14:02:33.922Z,3.80
2018-01-21T14:05:07.793Z,3.80
2018-01-21T14:07:41.461Z,3.80
2018-01-21T14:10:16.046Z,3.80
2018-01-21T14:12:50.474Z,3.80
2018-01-21T14:15:24.232Z,3.80
2018-01-21T14:17:57.995Z,3.80
2018-01-21T14:20:31.791Z,3.90
2018-01-21T14:23:05.494Z,3.80
2018-01-21T14:25:39.256Z,3.90
2018-01-21T14:28:13.828Z,3.90
2018-01-21T14:30:47.531Z,3.90
2018-01-21T14:33:22.088Z,3.80
2018-01-21T14:35:56.523Z,3.80
2018-01-21T14:38:30.881Z,3.80
2018-01-21T14:41:04.497Z,3.90
2018-01-21T14:43:39.097Z,3.80
2018-01-21T14:46:12.867Z,3.80
2018-01-21T14:48:46.660Z,3.80
2018-01-21T14:51:20.520Z,3.70
2018-01-21T14:53:54.252Z,3.70
2018-01-21T14:56:28.093Z,3.70
2018-01-21T14:59:03.137Z,3.70
2018-01-21T15:01:36.899Z,3.60
2018-01-21T15:04:10.705Z,3.60
2018-01-21T15:06:45.915Z,3.70
2018-01-21T15:09:19.624Z,3.70
2018-01-21T15:11:54.861Z,3.80
2018-01-21T15:14:28.560Z,3.80
2018-01-21T15:17:03.131Z,3.80
2018-01-21T15:19:36.887Z,3.80
2018-01-21T15:22:10.592Z,3.80
2018-01-21T15:24:44.426Z,3.70
2018-01-21T15:27:18.249Z,3.70
2018-01-21T15:29:52.665Z,3.70
2018-01-21T15:32:26.360Z,3.60
2018-01-21T15:35:01.232Z,3.60
2018-01-21T15:37:37.824Z,3.50
2018-01-21T15:40:13.617Z,3.50
2018-01-21T15:42:47.269Z,3.50
2018-01-21T15:45:21.820Z,3.50
2018-01-21T15:47:55.552Z,3.50
2018-01-21T15:50:29.710Z,3.50
2018-01-21T15:53:03.426Z,3.50
2018-01-21T15:55:37.152Z,3.50
2018-01-21T15:58:10.832Z,3.60
2018-01-21T16:00:44.626Z,3.60
2018-01-21T16:03:19.327Z,3.60
2018-01-21T16:05:54.018Z,3.60
2018-01-21T16:08:27.597Z,3.60
2018-01-21T16:11:02.203Z,3.60
2018-01-21T16:13:36.353Z,3.60
2018-01-21T16:16:11.603Z,3.50
2018-01-21T16:18:47.817Z,3.50
2018-01-21T16:21:23.303Z,3.50
2018-01-21T16:23:56.916Z,3.50
2018-01-21T16:26:30.603Z,3.40
2018-01-21T16:29:05.339Z,3.40
2018-01-21T16:31:39.267Z,3.30
2018-01-21T16:34:14.545Z,3.30
2018-01-21T16:36:48.202Z,3.30
2018-01-21T16:39:23.527Z,3.20
2018-01-21T16:42:00.677Z,3.20
2018-01-21T16:44:36.436Z,3.20
2018-01-21T16:47:10.895Z,3.10
2018-01-21T16:49:45.647Z,3.10
2018-01-21T16:52:19.847Z,3.00
2018-01-21T16:54:53.597Z,3.00
2018-01-21T16:57:28.750Z,2.80
2018-01-21T17:00:02.464Z,2.70
2018-01-21T17:02:37.083Z,2.60
2018-01-21T17:05:10.817Z,2.50
2018-01-21T17:07:45.528Z,2.40
2018-01-21T17:10:19.180Z,2.30
2018-01-21T17:12:52.969Z,2.30
2018-01-21T17:15:26.966Z,2.30
2018-01-21T17:18:00.667Z,2.30
2018-01-21T17:20:34.440Z,2.30
2018-01-21T17:23:08.976Z,2.20
2018-01-21T17:25:42.628Z,2.20
2018-01-21T17:28:16.436Z,2.20
2018-01-21T17:30:51.029Z,2.10
2018-01-21T17:33:25.706Z,2.10
2018-01-21T17:35:59.502Z,2.10
2018-01-21T17:38:33.545Z,2.10
2018-01-21T17:41:08.960Z,2.00
2018-01-21T17:43:42.718Z,2.00
2018-01-21T17:46:17.647Z,2.00
2018-01-21T17:48:53.506Z,2.20
2018-01-21T17:51:28.690Z,2.10
2018-01-21T17:54:03.878Z,2.20
2018-01-21T17:56:38.084Z,2.20
2018-01-21T17:59:12.784Z,2.10
2018-01-21T18:01:47.154Z,2.10
2018-01-21T18:04:20.937Z,2.00
2018-01-21T18:06:54.927Z,1.90
2018-01-21T18:09:28.558Z,1.90
2018-01-21T18:12:02.339Z,1.90
2018-01-21T18:14:35.896Z,1.90
2018-01-21T18:17:10.486Z,1.90
2018-01-21T18:19:45.377Z,2.00
2018-01-21T18:22:20.540Z,2.00
2018-01-21T18:24:55.372Z,2.00
2018-01-21T18:27:30.995Z,2.00
2018-01-21T18:30:04.747Z,2.00
2018-01-21T18:32:38.640Z,2.00
2018-01-21T18:35:12.295Z,2.00
2018-01-21T18:37:46.736Z,2.00
2018-01-21T18:40:20.529Z,1.90
2018-01-21T18:42:54.347Z,2.00
2018-01-21T18:45:28.079Z,2.00
2018-01-21T18:48:02.680Z,2.00
2018-01-21T18:50:36.527Z,2.00
2018-01-21T18:53:10.225Z,2.00
2018-01-21T18:55:43.952Z,2.00
2018-01-21T18:58:17.909Z,2.00
2018-01-21T19:00:52.583Z,2.00
2018-01-21T19:03:26.248Z,2.10
2018-01-21T19:06:00.046Z,2.10
2018-01-21T19:08:34.261Z,2.20
2018-01-21T19:11:08.000Z,2.20
2018-01-21T19:13:41.851Z,2.30
2018-01-21T19:16:15.979Z,2.30
2018-01-21T19:18:49.718Z,2.30
2018-01-21T19:21:23.428Z,2.30
2018-01-21T19:23:57.223Z,2.30
2018-01-21T19:26:30.941Z,2.30
2018-01-21T19:29:04.623Z,2.30
2018-01-21T19:31:38.438Z,2.30
2018-01-21T19:34:12.271Z,2.30
2018-01-21T19:36:47.235Z,2.20
2018-01-21T19:39:20.948Z,2.20
2018-01-21T19:41:58.427Z,2.20
2018-01-21T19:44:32.148Z,2.20
2018-01-21T19:47:05.915Z,2.10
2018-01-21T19:49:39.772Z,2.10
2018-01-21T19:52:13.511Z,2.10
2018-01-21T19:54:47.224Z,2.20
2018-01-21T19:57:21.011Z,2.20
2018-01-21T19:59:55.654Z,2.20
2018-01-21T20:02:30.125Z,2.20
2018-01-21T20:05:04.523Z,2.20
2018-01-21T20:07:38.954Z,2.20
2018-01-21T20:10:13.622Z,2.20
2018-01-21T20:12:50.820Z,2.20
2018-01-21T20:15:25.865Z,2.20
2018-01-21T20:17:59.694Z,2.20
2018-01-21T20:20:33.315Z,2.20
2018-01-21T20:23:07.133Z,2.20
2018-01-21T20:25:41.884Z,2.20
2018-01-21T20:28:15.652Z,2.20
2018-01-21T20:30:50.224Z,2.10
2018-01-21T20:33:25.770Z,2.10
2018-01-21T20:36:00.544Z,2.20
2018-01-21T20:38:35.072Z,2.20
2018-01-21T20:41:08.846Z,2.20
2018-01-21T20:43:42.691Z,2.20
2018-01-21T20:46:17.259Z,2.20
2018-01-21T20:48:52.954Z,2.10
2018-01-21T20:51:32.395Z,2.10
2018-01-21T20:54:11.968Z,2.10
2018-01-21T20:56:45.828Z,2.10
2018-01-21T20:59:20.480Z,2.00
2018-01-21T21:01:54.216Z,2.00
2018-01-21T21:04:27.955Z,2.00
2018-01-21T21:07:02.466Z,2.00
2018-01-21T21:09:36.471Z,2.00
2018-01-21T21:12:10.296Z,2.00
2018-01-21T21:14:44.107Z,2.00
2018-01-21T21:17:18.320Z,2.00
2018-01-21T21:19:51.919Z,2.00
2018-01-21T21:22:28.678Z,1.90
2018-01-21T21:25:02.475Z,1.90
2018-01-21T21:27:36.144Z,2.00
2018-01-21T21:30:09.893Z,1.90
2018-01-21T21:32:45.030Z,1.90
2018-01-21T21:35:18.606Z,1.90
2018-01-21T21:37:53.226Z,1.90
2018-01-21T21:40:26.959Z,1.90
2018-01-21T21:43:01.252Z,1.90
2018-01-21T21:45:35.048Z,1.90
2018-01-21T21:48:08.691Z,2.00
2018-01-21T21:50:43.499Z,2.00
2018-01-21T21:53:17.646Z,2.00
2018-01-21T21:55:51.439Z,2.00
2018-01-21T21:58:25.884Z,2.00
2018-01-21T22:01:00.464Z,1.90
2018-01-21T22:03:35.049Z,2.00
2018-01-21T22:06:08.701Z,2.00
2018-01-21T22:08:42.486Z,2.00
2018-01-21T22:11:16.197Z,2.00
2018-01-21T22:13:49.973Z,2.00
2018-01-21T22:16:24.629Z,2.10
2018-01-21T22:18:58.386Z,2.10
2018-01-21T22:21:33.795Z,2.10
2018-01-21T22:24:08.151Z,2.00
2018-01-21T22:26:42.347Z,2.00
2018-01-21T22:29:17.144Z,2.00
2018-01-21T22:31:50.853Z,2.00
2018-01-21T22:34:24.955Z,2.00
2018-01-21T22:36:58.573Z,2.00
2018-01-21T22:39:32.967Z,2.00
2018-01-21T22:42:07.136Z,2.00
2018-01-21T22:44:41.590Z,1.90
2018-01-21T22:47:15.398Z,1.90
2018-01-21T22:49:49.979Z,1.90
2018-01-21T22:52:23.741Z,1.90
2018-01-21T22:54:59.228Z,1.90
2018-01-21T22:57:33.092Z,1.90
2018-01-21T23:00:06.916Z,1.90
2018-01-21T23:02:42.557Z,1.80
2018-01-21T23:05:16.316Z,1.80
2018-01-21T23:07:50.770Z,1.80
2018-01-21T23:10:24.596Z,1.80
2018-01-21T23:12:58.146Z,1.90
2018-01-21T23:15:33.139Z,1.80
2018-01-21T23:18:06.865Z,1.80
2018-01-21T23:20:53.297Z,1.80
2018-01-21T23:23:27.023Z,1.80
2018-01-21T23:26:01.489Z,1.80
2018-01-21T23:28:36.384Z,1.80
2018-01-21T23:31:10.113Z,1.80
2018-01-21T23:33:43.976Z,1.90
2018-01-21T23:36:17.827Z,1.90
2018-01-21T23:38:51.477Z,1.90
2018-01-21T23:41:26.024Z,2.00
2018-01-21T23:43:59.858Z,1.90
2018-01-21T23:46:33.645Z,2.00
2018-01-21T23:49:07.372Z,2.00
2018-01-21T23:51:40.955Z,2.00
2018-01-21T23:54:14.541Z,2.00
2018-01-21T23:56:48.161Z,1.90
2018-01-21T23:59:21.908Z,1.90
